Aviation Forecast PDF Print E-mail

 
met_logo

NATIONAL METEOROLOGICAL SERVICE OF BELIZE

Area Forecast for the Country of Belize


For the period from:

1200 29 MARCH 2017

to

2400 29 MARCH 2017

All Heights in the forecast are above sea level. PS= Positive, MS= Minus. All times are UTC.


A.

SPECIAL FEATURES of the METEOROLOGICAL SITUATION

MAINLY FAIR, WARM AND DRY WEATHER PREVAILS OVER THE AREA...

B.

HEIGHT (Ft)

WIND (True Degrees and Knots)

TEMPERATURE (°C)

Surface

11008

  

PS30-33

2,000

12020

PS20

5,000

13010

PS16

10,000

30005

PS12

C.

CLOUDS (Amount, Type, Ceiling and Top(optional))

 

 FEW/SCT CU BASES 2,000-3,000FT TOPS 6000-8,000FT

 

 

 

 


D.

SURFACE VISIBILITY:  GREATER THAN 10KM. REDUCED TO 5-8KM IN -SHRA AND 500M IN HILL FOG. 


E.

WEATHER:  MOSTLY SUNNY WITH LITTLE OR NO RAINFALL. HILL FOG INLAND.


Remarks, Warnings, Turbulence

Barometric Changes

LOW CLOUDS COVERING HILLS. 

FALLING

G.

OUTLOOK:

TO 1200 30 MAR 2017

MAINLY FAIR AND DRY WEATHER TO CONTINUE.

H. 

TAF MZBZ

291100Z 2912/3012 11008KT 9999 SCT023 =

Meteorological Office:

BELIZE

Issued at:

1130 29 MARCH 2017

Forecaster:

S. Young